createdAt,value
2023-01-08T00:04:36.953Z,45.62
2023-01-08T00:09:39.738Z,45.93
2023-01-08T00:14:43.985Z,45.97
2023-01-08T00:19:46.717Z,46.09
2023-01-08T00:24:49.448Z,46.16
2023-01-08T00:29:53.579Z,46.04
2023-01-08T00:34:56.363Z,46.02
2023-01-08T00:39:59.205Z,46.14
2023-01-08T00:45:03.331Z,46.43
2023-01-08T00:50:06.873Z,46.45
2023-01-08T00:55:10.073Z,46.33
2023-01-08T01:00:16.177Z,46.45
2023-01-08T01:05:19.091Z,46.69
2023-01-08T01:10:21.908Z,46.39
2023-01-08T01:15:26.251Z,46.64
2023-01-08T01:20:29.267Z,46.31
2023-01-08T01:25:32.081Z,46.35
2023-01-08T01:30:36.279Z,46.40
2023-01-08T01:35:39.185Z,46.38
2023-01-08T01:40:42.943Z,46.43
2023-01-08T01:45:47.129Z,46.25
2023-01-08T01:50:50.838Z,46.37
2023-01-08T01:55:53.594Z,46.19
2023-01-08T02:00:59.018Z,46.24
2023-01-08T02:06:03.997Z,46.08
2023-01-08T02:11:08.582Z,46.17
2023-01-08T02:16:15.131Z,46.20
2023-01-08T02:21:20.580Z,46.33
2023-01-08T02:26:25.061Z,46.19
2023-01-08T02:31:28.597Z,46.10
2023-01-08T02:36:37.574Z,46.20
2023-01-08T02:41:56.166Z,46.16
2023-01-08T02:46:58.936Z,46.23
2023-01-08T02:52:01.730Z,46.35
2023-01-08T02:57:07.672Z,46.33
2023-01-08T03:02:11.026Z,46.13
2023-01-08T03:07:13.947Z,46.20
2023-01-08T03:12:20.131Z,46.28
2023-01-08T03:17:24.053Z,46.24
2023-01-08T03:22:26.830Z,46.34
2023-01-08T03:27:30.939Z,46.48
2023-01-08T03:32:33.703Z,46.44
2023-01-08T03:37:38.339Z,46.41
2023-01-08T03:42:42.987Z,46.37
2023-01-08T03:47:45.713Z,46.52
2023-01-08T03:52:48.439Z,46.57
2023-01-08T03:57:52.590Z,46.65
2023-01-08T04:02:55.356Z,46.66
2023-01-08T04:07:58.294Z,46.66
2023-01-08T04:13:02.444Z,46.75
2023-01-08T04:18:05.387Z,46.84
2023-01-08T04:23:08.140Z,46.88
2023-01-08T04:28:12.250Z,47.01
2023-01-08T04:33:15.015Z,46.90
2023-01-08T04:38:17.714Z,46.90
2023-01-08T04:43:22.041Z,46.92
2023-01-08T04:48:24.795Z,46.95
2023-01-08T04:53:27.791Z,46.77
2023-01-08T04:58:31.915Z,47.02
2023-01-08T05:03:34.716Z,46.83
2023-01-08T05:08:37.577Z,46.71
2023-01-08T05:13:41.816Z,46.96
2023-01-08T05:18:44.643Z,46.96
2023-01-08T05:23:48.283Z,47.00
2023-01-08T05:28:52.812Z,46.91
2023-01-08T05:33:55.592Z,47.17
2023-01-08T05:38:58.368Z,47.19
2023-01-08T05:44:02.565Z,47.20
2023-01-08T05:49:05.452Z,47.26
2023-01-08T05:54:08.529Z,47.36
2023-01-08T05:59:13.422Z,47.47
2023-01-08T06:04:16.219Z,47.58
2023-01-08T06:09:19.820Z,47.58
2023-01-08T06:14:24.022Z,47.59
2023-01-08T06:19:26.886Z,47.50
2023-01-08T06:24:29.654Z,47.65
2023-01-08T06:29:33.866Z,47.78
2023-01-08T06:34:36.689Z,47.95
2023-01-08T06:39:39.530Z,47.88
2023-01-08T06:44:43.841Z,47.89
2023-01-08T06:49:46.772Z,47.92
2023-01-08T06:54:49.582Z,47.87
2023-01-08T06:59:53.700Z,47.67
2023-01-08T07:04:56.603Z,47.83
2023-01-08T07:09:59.450Z,47.79
2023-01-08T07:15:04.074Z,48.01
2023-01-08T07:20:08.081Z,48.09
2023-01-08T07:25:11.238Z,48.18
2023-01-08T07:30:28.999Z,47.98
2023-01-08T07:35:32.820Z,48.19
2023-01-08T07:40:36.465Z,48.26
2023-01-08T07:45:42.094Z,48.29
2023-01-08T07:50:45.063Z,48.10
2023-01-08T07:55:48.064Z,48.34
2023-01-08T08:00:52.155Z,48.13
2023-01-08T08:05:54.955Z,48.35
2023-01-08T08:10:57.793Z,46.61
2023-01-08T08:16:05.422Z,42.42
2023-01-08T08:21:08.215Z,41.20
2023-01-08T08:26:11.029Z,41.18
2023-01-08T08:31:15.546Z,40.90
2023-01-08T08:36:18.488Z,40.24
2023-01-08T08:41:21.230Z,38.94
2023-01-08T08:46:26.037Z,38.37
2023-01-08T08:51:29.289Z,38.80
2023-01-08T08:56:32.274Z,38.28
2023-01-08T09:01:36.581Z,38.63
2023-01-08T09:06:39.410Z,38.74
2023-01-08T09:11:42.171Z,39.42
2023-01-08T09:16:46.262Z,39.26
2023-01-08T09:21:49.170Z,39.29
2023-01-08T09:26:54.176Z,39.50
2023-01-08T09:32:00.580Z,39.63
2023-01-08T09:37:03.414Z,39.65
2023-01-08T09:42:06.687Z,39.68
2023-01-08T09:47:21.956Z,39.68
2023-01-08T09:52:24.737Z,39.76
2023-01-08T09:57:27.559Z,39.90
2023-01-08T10:02:31.967Z,40.27
2023-01-08T10:07:34.894Z,39.90
2023-01-08T10:12:37.775Z,40.08
2023-01-08T10:17:42.800Z,40.03
2023-01-08T10:22:47.701Z,39.95
2023-01-08T10:27:51.456Z,39.89
2023-01-08T10:32:56.709Z,40.04
2023-01-08T10:37:59.515Z,40.24
2023-01-08T10:43:07.615Z,40.39
2023-01-08T10:48:17.888Z,40.74
2023-01-08T10:53:24.251Z,40.74
2023-01-08T10:58:28.634Z,40.46
2023-01-08T11:03:33.402Z,40.62
2023-01-08T11:08:36.277Z,40.14
2023-01-08T11:13:39.062Z,39.96
2023-01-08T11:18:46.150Z,40.04
2023-01-08T11:23:49.237Z,40.47
2023-01-08T11:28:53.704Z,40.43
2023-01-08T11:34:00.141Z,39.84
2023-01-08T11:39:03.071Z,39.67
2023-01-08T11:44:23.572Z,39.53
2023-01-08T11:49:35.867Z,39.33
2023-01-08T11:54:47.209Z,39.66
2023-01-08T11:59:56.961Z,39.63
2023-01-08T12:05:23.417Z,39.74
2023-01-08T12:10:30.922Z,38.67
2023-01-08T12:15:40.810Z,34.66
2023-01-08T12:20:48.340Z,35.02
2023-01-08T12:26:13.591Z,35.52
2023-01-08T12:31:25.623Z,38.17
2023-01-08T12:36:33.306Z,37.86
2023-01-08T12:41:36.186Z,37.86
2023-01-08T12:46:39.963Z,37.83
2023-01-08T12:51:49.630Z,37.76
2023-01-08T12:56:54.733Z,37.71
2023-01-08T13:02:02.593Z,37.78
2023-01-08T13:07:06.967Z,37.91
2023-01-08T13:12:10.234Z,37.90
2023-01-08T13:17:18.994Z,37.91
2023-01-08T13:22:26.150Z,37.73
2023-01-08T13:27:30.254Z,37.84
2023-01-08T13:32:42.703Z,38.00
2023-01-08T13:37:47.858Z,38.13
2023-01-08T13:42:50.877Z,38.08
2023-01-08T13:47:53.682Z,38.21
2023-01-08T13:52:59.116Z,38.18
2023-01-08T13:58:03.698Z,38.36
2023-01-08T14:03:06.852Z,38.22
2023-01-08T14:08:24.855Z,38.53
2023-01-08T14:13:29.066Z,38.79
2023-01-08T14:18:31.808Z,38.89
2023-01-08T14:23:37.324Z,38.81
2023-01-08T14:28:40.087Z,38.65
2023-01-08T14:33:43.001Z,38.61
2023-01-08T14:38:50.836Z,38.74
2023-01-08T14:43:53.673Z,38.63
2023-01-08T14:48:56.512Z,38.57
2023-01-08T14:54:01.335Z,38.79
2023-01-08T14:59:08.042Z,38.65
2023-01-08T15:04:16.679Z,38.74
2023-01-08T15:09:24.751Z,38.67
2023-01-08T15:14:28.346Z,38.85
2023-01-08T15:19:31.824Z,39.04
2023-01-08T15:24:39.184Z,38.85
2023-01-08T15:29:48.410Z,39.01
2023-01-08T15:34:51.160Z,39.10
2023-01-08T15:39:55.468Z,39.31
2023-01-08T15:44:58.446Z,39.50
2023-01-08T15:50:01.496Z,39.37
2023-01-08T15:55:06.735Z,39.47
2023-01-08T16:00:11.275Z,39.48
2023-01-08T16:05:14.489Z,39.82
2023-01-08T16:10:19.098Z,39.98
2023-01-08T16:15:22.681Z,39.80
2023-01-08T16:20:25.628Z,39.74
2023-01-08T16:25:31.414Z,40.00
2023-01-08T16:30:34.453Z,40.01
2023-01-08T16:35:37.248Z,40.19
2023-01-08T16:40:41.475Z,40.13
2023-01-08T16:45:45.575Z,40.36
2023-01-08T16:50:48.734Z,40.59
2023-01-08T16:55:53.253Z,40.40
2023-01-08T17:00:56.121Z,40.71
2023-01-08T17:06:01.917Z,40.95
2023-01-08T17:11:09.624Z,41.19
2023-01-08T17:16:14.817Z,41.10
2023-01-08T17:21:18.223Z,41.17
2023-01-08T17:26:22.347Z,41.03
2023-01-08T17:31:25.202Z,40.92
2023-01-08T17:36:28.081Z,41.19
2023-01-08T17:41:49.928Z,41.18
2023-01-08T17:46:52.830Z,41.31
2023-01-08T17:51:56.982Z,41.03
2023-01-08T17:57:01.178Z,40.70
2023-01-08T18:02:03.991Z,40.82
2023-01-08T18:07:07.002Z,40.98
2023-01-08T18:12:11.292Z,40.89
2023-01-08T18:17:14.075Z,41.11
2023-01-08T18:22:16.909Z,41.10
2023-01-08T18:27:21.179Z,41.04
2023-01-08T18:32:26.008Z,41.14
2023-01-08T18:37:28.975Z,40.92
2023-01-08T18:42:34.131Z,41.03
2023-01-08T18:47:38.253Z,40.97
2023-01-08T18:52:41.964Z,40.94
2023-01-08T18:57:47.351Z,41.06
2023-01-08T19:02:51.943Z,40.99
2023-01-08T19:07:54.836Z,41.00
2023-01-08T19:12:59.050Z,41.04
2023-01-08T19:18:01.846Z,41.09
2023-01-08T19:23:04.786Z,40.91
2023-01-08T19:28:09.072Z,40.84
2023-01-08T19:33:12.835Z,41.03
2023-01-08T19:38:15.636Z,40.91
2023-01-08T19:43:37.469Z,40.88
2023-01-08T19:48:42.312Z,40.88
2023-01-08T19:53:45.179Z,41.08
2023-01-08T19:58:49.580Z,40.95
2023-01-08T20:03:52.464Z,41.31
2023-01-08T20:08:57.438Z,41.13
2023-01-08T20:14:02.860Z,41.01
2023-01-08T20:19:05.794Z,41.21
2023-01-08T20:24:11.719Z,41.10
2023-01-08T20:29:16.699Z,41.28
2023-01-08T20:34:19.475Z,41.29
2023-01-08T20:39:22.261Z,41.28
2023-01-08T20:44:26.434Z,41.31
2023-01-08T20:49:29.821Z,41.22
2023-01-08T20:54:32.688Z,41.37
2023-01-08T20:59:36.927Z,41.32
2023-01-08T21:04:41.680Z,41.37
2023-01-08T21:09:45.029Z,41.35
2023-01-08T21:14:49.268Z,41.44
2023-01-08T21:19:52.132Z,41.43
2023-01-08T21:24:54.964Z,41.43
2023-01-08T21:29:59.271Z,41.45
2023-01-08T21:35:02.063Z,41.39
2023-01-08T21:40:06.117Z,41.62
2023-01-08T21:45:25.632Z,41.50
2023-01-08T21:50:28.376Z,41.78
2023-01-08T21:55:31.154Z,41.93
2023-01-08T22:00:35.333Z,41.74
2023-01-08T22:05:38.109Z,41.76
2023-01-08T22:10:41.060Z,41.91
2023-01-08T22:15:45.202Z,41.87
2023-01-08T22:20:47.993Z,41.98
2023-01-08T22:25:50.758Z,42.10
2023-01-08T22:30:54.978Z,42.02
2023-01-08T22:35:57.772Z,42.34
2023-01-08T22:41:00.560Z,42.68
2023-01-08T22:46:04.724Z,42.67
2023-01-08T22:51:07.520Z,42.73
2023-01-08T22:56:12.172Z,42.78
2023-01-08T23:01:17.642Z,42.90
2023-01-08T23:06:21.052Z,42.90
2023-01-08T23:11:24.401Z,42.89
2023-01-08T23:16:28.604Z,43.04
2023-01-08T23:21:31.423Z,43.00
2023-01-08T23:26:34.194Z,43.10
2023-01-08T23:31:38.555Z,43.20
2023-01-08T23:36:42.870Z,43.18
2023-01-08T23:41:45.687Z,43.10
2023-01-08T23:46:49.865Z,43.35
2023-01-08T23:51:52.718Z,43.25
2023-01-08T23:56:55.472Z,43.34
